CST,Max TemperatureF,Mean TemperatureF,Min TemperatureF,Max Dew PointF,MeanDew PointF,Min DewpointF,Max Humidity, Mean Humidity, Min Humidity, Max Sea Level PressureIn, Mean Sea Level PressureIn, Min Sea Level PressureIn, Max VisibilityMiles, Mean VisibilityMiles, Min VisibilityMiles, Max Wind SpeedMPH, Mean Wind SpeedMPH, Max Gust SpeedMPH,PrecipitationIn, CloudCover, Events, WindDirDegrees
2011-12-1,78,57,36,59,48,33,97,78,34,30.17,30.10,30.01,10,10,10,20,5,26,0.00,4,,69
2011-12-2,63,61,59,63,62,58,100,98,88,30.25,30.16,30.07,10,9,2,16,8,,0.26,8,Rain,94
2011-12-3,70,65,60,68,64,58,100,96,83,30.04,29.99,29.91,10,8,1,15,10,20,0.20,8,Rain,142
2011-12-4,68,57,46,66,54,46,100,93,87,30.08,29.99,29.94,10,9,4,23,9,30,0.34,8,Rain-Thunderstorm,35
2011-12-5,46,42,37,46,41,33,100,89,74,30.27,30.05,29.92,10,9,5,21,13,28,0.24,8,Rain-Thunderstorm,2
2011-12-6,43,36,28,32,27,23,82,67,52,30.40,30.32,30.26,10,10,10,18,14,29,0.00,5,,342
2011-12-7,54,40,26,30,26,23,87,66,33,30.48,30.37,30.28,10,10,10,9,6,,0.00,0,,329
2011-12-8,59,44,28,39,32,26,93,75,42,30.31,30.23,30.13,10,8,4,10,3,,0.00,3,,333
2011-12-9,66,52,38,52,46,37,99,81,61,30.36,30.23,30.12,10,10,10,12,6,22,0.00,4,,22
2011-12-10,53,48,44,46,43,39,100,86,65,30.47,30.42,30.35,10,8,4,16,9,22,0.71,8,Rain,36
2011-12-11,50,47,44,45,39,34,95,72,58,30.42,30.32,30.24,10,10,7,9,4,,0.01,8,Rain,46
2011-12-12,62,54,46,60,45,34,94,75,56,30.30,30.19,30.13,10,10,4,14,6,,0.01,8,Rain,72
2011-12-13,71,65,59,70,63,59,100,97,86,30.22,30.15,30.06,10,5,0,17,10,22,0.02,8,Fog-Rain,128
2011-12-14,75,72,68,68,67,66,100,92,73,30.06,29.99,29.90,10,9,2,20,14,23,0.08,8,Rain,160
2011-12-15,69,61,52,68,60,48,100,95,82,30.14,30.02,29.96,10,9,3,17,9,24,0.03,8,Rain,67
2011-12-16,57,53,49,48,47,41,90,82,68,30.38,30.25,30.14,10,10,10,21,13,26,0.01,8,Rain,13
2011-12-17,58,53,48,43,37,33,67,55,40,30.48,30.42,30.38,10,9,5,14,7,20,0.00,8,,32
2011-12-18,60,56,51,57,48,38,100,71,48,30.40,30.20,30.07,10,9,4,13,5,,0.01,8,,109
2011-12-19,72,64,57,66,61,57,100,96,71,30.06,29.89,29.75,10,6,2,25,11,38,0.15,8,Rain,135
2011-12-20,60,53,43,55,40,32,100,65,38,30.04,29.95,29.88,10,9,4,28,9,33,0.00,1,,335
2011-12-21,53,46,40,46,42,34,100,81,52,30.05,29.96,29.90,10,8,3,8,4,,0.52,7,Rain-Thunderstorm,13
2011-12-22,66,54,42,51,46,34,100,93,53,30.25,29.97,29.87,10,8,3,20,4,28,0.39,6,Rain-Thunderstorm,346
2011-12-23,44,42,40,38,36,34,82,77,71,30.40,30.32,30.25,10,10,10,15,11,23,0.00,6,,22
2011-12-24,44,43,42,43,42,39,100,93,81,30.37,30.32,30.28,10,10,6,14,12,22,0.10,8,Rain,15
2011-12-25,49,46,42,43,40,37,100,83,71,30.42,30.36,30.32,10,10,10,15,11,21,0.00,8,,342
2011-12-26,58,50,41,41,37,31,89,75,36,30.33,30.24,30.09,10,10,10,14,5,18,0.02,5,Rain,291
2011-12-27,66,50,33,35,32,28,87,59,24,30.28,30.22,30.17,10,10,10,12,6,,0.00,0,,344
2011-12-28,69,52,34,41,36,31,89,62,33,30.21,30.09,29.97,10,10,10,13,6,,0.00,0,,262
2011-12-29,70,52,35,38,34,31,84,54,24,30.09,30.00,29.91,10,10,10,9,4,,0.00,0,,247
2011-12-30,74,58,42,41,39,34,76,53,29,30.06,30.01,29.91,10,8,5,12,6,16,0.00,0,,345
2011-12-31,76,59,42,47,42,36,78,60,30,30.10,30.03,29.96,10,10,8,13,7,,0.00,0,,294